createdAt,value
2019-03-11T00:00:23.891Z,97374.15
2019-03-11T00:02:53.306Z,97368.75
2019-03-11T00:05:22.601Z,97366.53
2019-03-11T00:07:51.839Z,97358.59
2019-03-11T00:10:21.010Z,97348.89
2019-03-11T00:12:50.290Z,97351.58
2019-03-11T00:15:19.564Z,97344.47
2019-03-11T00:17:48.811Z,97342.75
2019-03-11T00:20:18.119Z,97339.28
2019-03-11T00:22:47.373Z,97333.02
2019-03-11T00:25:16.620Z,97328.16
2019-03-11T00:27:45.861Z,97323.47
2019-03-11T00:30:15.279Z,97322.76
2019-03-11T00:32:44.443Z,97318.30
2019-03-11T00:35:13.664Z,97318.66
2019-03-11T00:37:42.906Z,97315.19
2019-03-11T00:40:14.112Z,97318.85
2019-03-11T00:42:43.409Z,97327.34
2019-03-11T00:45:15.163Z,97331.98
2019-03-11T00:47:44.335Z,97319.03
2019-03-11T00:50:13.930Z,97327.52
2019-03-11T00:52:43.254Z,97333.21
2019-03-11T00:55:13.213Z,97331.04
2019-03-11T00:57:42.524Z,97338.00
2019-03-11T01:00:35.148Z,97335.16
2019-03-11T01:03:04.637Z,97348.02
2019-03-11T01:05:33.950Z,97348.39
2019-03-11T01:08:03.189Z,97350.10
2019-03-11T01:10:32.468Z,97348.21
2019-03-11T01:13:01.794Z,97349.39
2019-03-11T01:15:31.087Z,97350.91
2019-03-11T01:18:00.269Z,97358.70
2019-03-11T01:20:29.509Z,97357.27
2019-03-11T01:22:58.781Z,97362.00
2019-03-11T01:25:28.058Z,97359.89
2019-03-11T01:27:57.300Z,97369.64
2019-03-11T01:30:26.496Z,97379.11
2019-03-11T01:32:55.725Z,97391.34
2019-03-11T01:35:24.971Z,97380.89
2019-03-11T01:37:54.350Z,97398.49
2019-03-11T01:40:23.569Z,97394.73
2019-03-11T01:42:52.748Z,97400.88
2019-03-11T01:45:21.933Z,97415.97
2019-03-11T01:47:51.157Z,97417.45
2019-03-11T01:50:20.493Z,97432.33
2019-03-11T01:52:49.639Z,97443.40
2019-03-11T01:55:18.896Z,97451.58
2019-03-11T01:57:48.054Z,97464.17
2019-03-11T02:00:19.136Z,97480.03
2019-03-11T02:02:48.384Z,97493.08
2019-03-11T02:05:17.554Z,97508.58
2019-03-11T02:07:46.913Z,97531.00
2019-03-11T02:10:19.591Z,97552.41
2019-03-11T02:12:48.755Z,97562.55
2019-03-11T02:15:19.009Z,97581.66
2019-03-11T02:17:48.174Z,97592.73
2019-03-11T02:20:18.286Z,97612.22
2019-03-11T02:22:47.562Z,97625.70
2019-03-11T02:25:16.739Z,97641.77
2019-03-11T02:27:46.035Z,97643.77
2019-03-11T02:30:18.958Z,97653.79
2019-03-11T02:32:48.105Z,97680.75
2019-03-11T02:35:30.150Z,97680.54
2019-03-11T02:37:59.463Z,97699.95
2019-03-11T02:40:28.625Z,97718.95
2019-03-11T02:42:57.897Z,97739.94
2019-03-11T02:45:27.208Z,97749.58
2019-03-11T02:47:56.475Z,97761.05
2019-03-11T02:50:25.753Z,97765.59
2019-03-11T02:52:55.047Z,97772.42
2019-03-11T02:55:24.220Z,97790.18
2019-03-11T02:57:53.450Z,97809.71
2019-03-11T03:00:22.725Z,97825.64
2019-03-11T03:02:54.778Z,97834.96
2019-03-11T03:05:25.693Z,97839.13
2019-03-11T03:07:54.936Z,97861.16
2019-03-11T03:10:24.176Z,97873.13
2019-03-11T03:12:53.481Z,97886.12
2019-03-11T03:15:22.812Z,97892.23
2019-03-11T03:17:52.047Z,97902.38
2019-03-11T03:20:21.380Z,97916.20
2019-03-11T03:22:50.585Z,97925.16
2019-03-11T03:25:33.133Z,97934.11
2019-03-11T03:27:51.115Z,97944.52
2019-03-11T03:30:20.963Z,97960.83
2019-03-11T03:32:50.203Z,97958.78
2019-03-11T03:35:19.426Z,97970.82
2019-03-11T03:37:48.717Z,97971.95
2019-03-11T03:40:18.017Z,97985.30
2019-03-11T03:42:47.506Z,97997.11
2019-03-11T03:45:24.848Z,98018.12
2019-03-11T03:47:54.075Z,98019.98
2019-03-11T03:50:25.772Z,98022.38
2019-03-11T03:52:55.059Z,98004.70
2019-03-11T03:55:24.367Z,98031.53
2019-03-11T03:57:53.613Z,98036.38
2019-03-11T04:00:22.838Z,98047.67
2019-03-11T04:02:52.067Z,98061.70
2019-03-11T04:05:21.375Z,98060.76
2019-03-11T04:07:50.797Z,98064.09
2019-03-11T04:10:20.531Z,98076.06
2019-03-11T04:12:49.781Z,98084.12
2019-03-11T04:15:19.078Z,98080.06
2019-03-11T04:17:48.326Z,98096.72
2019-03-11T04:20:25.869Z,98108.02
2019-03-11T04:22:55.250Z,98117.94
2019-03-11T04:25:26.575Z,98121.88
2019-03-11T04:27:55.814Z,98143.17
2019-03-11T04:30:26.721Z,98151.73
2019-03-11T04:32:56.043Z,98157.86
2019-03-11T04:35:25.534Z,98164.86
2019-03-11T04:37:54.937Z,98181.27
2019-03-11T04:40:24.176Z,98187.70
2019-03-11T04:42:53.561Z,98195.95
2019-03-11T04:45:23.023Z,98209.91
2019-03-11T04:47:52.402Z,98220.80
2019-03-11T04:50:21.986Z,98233.31
2019-03-11T04:52:51.459Z,98229.27
2019-03-11T04:55:20.729Z,98228.56
2019-03-11T04:57:54.099Z,98238.88
2019-03-11T05:00:31.603Z,98246.31
2019-03-11T05:03:00.974Z,98243.91
2019-03-11T05:05:30.292Z,98258.13
2019-03-11T05:07:59.608Z,98255.78
2019-03-11T05:10:28.974Z,98257.80
2019-03-11T05:12:58.295Z,98265.05
2019-03-11T05:15:27.752Z,98276.55
2019-03-11T05:17:58.684Z,98293.30
2019-03-11T05:20:28.179Z,98295.82
2019-03-11T05:22:57.520Z,98301.41
2019-03-11T05:25:26.910Z,98305.27
2019-03-11T05:27:56.308Z,98311.67
2019-03-11T05:30:25.616Z,98315.55
2019-03-11T05:32:55.085Z,98318.77
2019-03-11T05:35:24.388Z,98336.39
2019-03-11T05:37:53.737Z,98337.89
2019-03-11T05:40:23.105Z,98332.43
2019-03-11T05:42:52.357Z,98342.73
2019-03-11T05:45:21.829Z,98338.21
2019-03-11T05:47:51.157Z,98348.72
2019-03-11T05:50:20.403Z,98346.48
2019-03-11T05:52:49.746Z,98352.93
2019-03-11T05:55:19.118Z,98358.34
2019-03-11T05:57:48.446Z,98360.69
2019-03-11T06:00:23.237Z,98369.64
2019-03-11T06:02:52.697Z,98373.18
2019-03-11T06:05:21.932Z,98378.28
2019-03-11T06:07:51.345Z,98379.77
2019-03-11T06:10:20.662Z,98366.88
2019-03-11T06:12:50.021Z,98382.09
2019-03-11T06:15:19.331Z,98386.06
2019-03-11T06:17:48.740Z,98394.59
2019-03-11T06:20:31.911Z,98400.53
2019-03-11T06:23:02.857Z,98408.92
2019-03-11T06:25:32.182Z,98409.42
2019-03-11T06:28:01.552Z,98422.13
2019-03-11T06:30:30.999Z,98417.00
2019-03-11T06:33:00.403Z,98433.03
2019-03-11T06:35:29.729Z,98425.53
2019-03-11T06:37:59.182Z,98439.09
2019-03-11T06:40:28.432Z,98439.19
2019-03-11T06:42:57.883Z,98457.45
2019-03-11T06:45:27.507Z,98463.59
2019-03-11T06:47:56.828Z,98463.45
2019-03-11T06:50:26.172Z,98469.32
2019-03-11T06:52:55.524Z,98476.57
2019-03-11T06:55:24.935Z,98482.70
2019-03-11T06:57:54.183Z,98486.56
2019-03-11T07:00:23.600Z,98486.28
2019-03-11T07:02:52.786Z,98492.89
2019-03-11T07:05:22.190Z,98503.39
2019-03-11T07:07:51.612Z,98499.31
2019-03-11T07:10:20.922Z,98504.71
2019-03-11T07:12:50.325Z,98510.91
2019-03-11T07:15:20.646Z,98518.85
2019-03-11T07:17:50.052Z,98518.53
2019-03-11T07:20:19.743Z,98528.12
2019-03-11T07:22:49.560Z,98537.35
2019-03-11T07:25:18.867Z,98539.01
2019-03-11T07:27:48.430Z,98529.55
2019-03-11T07:30:19.599Z,98542.84
2019-03-11T07:32:48.840Z,98550.20
2019-03-11T07:35:18.245Z,98544.97
2019-03-11T07:37:47.570Z,98540.23
2019-03-11T07:40:28.311Z,98539.59
2019-03-11T07:42:48.734Z,98540.75
2019-03-11T07:45:18.059Z,98547.64
2019-03-11T07:47:47.351Z,98548.37
2019-03-11T07:50:17.378Z,98569.34
2019-03-11T07:52:46.700Z,98570.72
2019-03-11T07:55:16.236Z,98571.97
2019-03-11T07:57:45.538Z,98575.59
2019-03-11T08:00:19.674Z,98584.27
2019-03-11T08:02:48.923Z,98599.41
2019-03-11T08:05:18.407Z,98599.23
2019-03-11T08:07:47.710Z,98607.02
2019-03-11T08:10:22.032Z,98608.35
2019-03-11T08:12:51.527Z,98613.94
2019-03-11T08:15:20.956Z,98615.93
2019-03-11T08:17:50.369Z,98638.89
2019-03-11T08:20:19.627Z,98639.87
2019-03-11T08:22:49.080Z,98646.28
2019-03-11T08:25:18.344Z,98648.78
2019-03-11T08:27:47.657Z,98650.43
2019-03-11T08:30:19.066Z,98658.47
2019-03-11T08:32:48.455Z,98646.11
2019-03-11T08:35:17.849Z,98654.34
2019-03-11T08:37:47.282Z,98659.00
2019-03-11T08:40:20.586Z,98660.19
2019-03-11T08:42:49.904Z,98656.14
2019-03-11T08:45:19.830Z,98657.55
2019-03-11T08:47:49.080Z,98656.51
2019-03-11T08:50:18.458Z,98654.09
2019-03-11T08:52:47.854Z,98647.00
2019-03-11T08:55:17.234Z,98634.72
2019-03-11T08:57:46.581Z,98640.16
2019-03-11T09:00:18.355Z,98640.98
2019-03-11T09:02:47.643Z,98638.45
2019-03-11T09:05:18.760Z,98639.20
2019-03-11T09:07:48.073Z,98639.30
2019-03-11T09:10:18.376Z,98650.98
2019-03-11T09:12:47.788Z,98639.55
2019-03-11T09:15:18.597Z,98648.08
2019-03-11T09:17:48.082Z,98655.84
2019-03-11T09:20:18.132Z,98650.99
2019-03-11T09:22:47.504Z,98662.56
2019-03-11T09:25:27.134Z,98668.36
2019-03-11T09:27:56.513Z,98676.58
2019-03-11T09:30:25.842Z,98679.51
2019-03-11T09:32:55.241Z,98688.03
2019-03-11T09:35:24.627Z,98678.23
2019-03-11T09:37:53.949Z,98688.08
2019-03-11T09:40:23.384Z,98692.50
2019-03-11T09:42:52.623Z,98692.25
2019-03-11T09:45:24.325Z,98694.47
2019-03-11T09:47:53.144Z,98695.56
2019-03-11T09:50:22.481Z,98695.97
2019-03-11T09:52:51.792Z,98694.62
2019-03-11T09:55:24.372Z,98695.38
2019-03-11T09:57:53.783Z,98690.61
2019-03-11T10:00:34.399Z,98700.17
2019-03-11T10:03:03.903Z,98704.34
2019-03-11T10:05:33.348Z,98690.92
2019-03-11T10:08:02.784Z,98688.69
2019-03-11T10:10:32.135Z,98697.34
2019-03-11T10:13:01.679Z,98695.55
2019-03-11T10:15:31.073Z,98696.81
2019-03-11T10:18:00.462Z,98714.84
2019-03-11T10:20:29.717Z,98718.02
2019-03-11T10:22:59.029Z,98724.28
2019-03-11T10:25:28.457Z,98727.08
2019-03-11T10:27:57.846Z,98737.20
2019-03-11T10:30:27.264Z,98744.11
2019-03-11T10:32:56.750Z,98738.41
2019-03-11T10:35:31.768Z,98743.15
2019-03-11T10:37:57.263Z,98732.88
2019-03-11T10:40:31.096Z,98726.23
2019-03-11T10:43:00.427Z,98729.27
2019-03-11T10:45:32.156Z,98715.66
2019-03-11T10:48:00.934Z,98705.19
2019-03-11T10:50:30.271Z,98719.68
2019-03-11T14:55:43.545Z,98725.64
2019-03-11T14:58:12.873Z,98733.14
2019-03-11T15:00:42.180Z,98728.66
2019-03-11T15:03:11.498Z,98730.16
2019-03-11T15:05:40.838Z,98738.98
2019-03-11T15:08:12.542Z,98738.84
2019-03-11T15:10:40.913Z,98739.31
2019-03-11T15:13:10.419Z,98742.95
2019-03-11T15:15:39.664Z,98752.09
2019-03-11T15:18:09.271Z,98749.61
2019-03-11T15:20:38.575Z,98755.28
2019-03-11T15:23:19.917Z,98760.05
2019-03-11T15:25:39.390Z,98758.69
2019-03-11T15:28:11.369Z,98749.81
2019-03-11T15:30:40.999Z,98755.91
2019-03-11T15:33:10.295Z,98745.56
2019-03-11T15:35:39.710Z,98751.04
2019-03-11T15:38:09.035Z,98743.11
2019-03-11T15:40:38.371Z,98749.96
2019-03-11T15:43:07.766Z,98746.62
2019-03-11T15:45:38.999Z,98748.97
2019-03-11T15:48:08.080Z,98748.20
2019-03-11T15:50:37.450Z,98751.39
2019-03-11T15:53:06.769Z,98753.64
2019-03-11T15:55:36.092Z,98750.00
2019-03-11T15:58:05.448Z,98759.00
2019-03-11T16:00:34.860Z,98763.44
2019-03-11T16:03:04.291Z,98761.71
2019-03-11T16:05:34.202Z,98756.67
2019-03-11T16:08:03.616Z,98761.59
2019-03-11T16:10:32.942Z,98757.55
2019-03-11T16:13:02.403Z,98770.11
2019-03-11T16:15:31.728Z,98776.94
2019-03-11T16:18:00.987Z,98775.12
2019-03-11T16:20:30.398Z,98781.42
2019-03-11T16:22:59.598Z,98785.72
2019-03-11T16:25:29.023Z,98787.66
2019-03-11T16:27:58.416Z,98784.68
2019-03-11T16:30:28.290Z,98790.19
2019-03-11T16:33:00.302Z,98790.33
2019-03-11T16:35:29.269Z,98790.44
2019-03-11T16:37:58.655Z,98796.58
2019-03-11T16:40:27.975Z,98797.62
2019-03-11T16:42:57.406Z,98800.62
2019-03-11T16:45:26.788Z,98800.18
2019-03-11T16:47:56.077Z,98811.63
2019-03-11T16:50:28.327Z,98812.90
2019-03-11T16:52:57.751Z,98818.84
2019-03-11T16:55:30.317Z,98825.39
2019-03-11T16:57:59.578Z,98828.34
2019-03-11T17:00:33.224Z,98834.52
2019-03-11T17:03:02.540Z,98836.20
2019-03-11T17:05:32.053Z,98841.72
2019-03-11T17:08:01.358Z,98844.97
2019-03-11T17:10:30.798Z,98849.95
2019-03-11T17:13:00.293Z,98849.06
2019-03-11T17:15:30.038Z,98853.95
2019-03-11T17:17:59.386Z,98863.16
2019-03-11T17:20:28.751Z,98858.61
2019-03-11T17:22:58.139Z,98862.59
2019-03-11T17:25:27.579Z,98860.55
2019-03-11T17:27:56.850Z,98859.72
2019-03-11T17:30:26.969Z,98866.09
2019-03-11T17:32:56.325Z,98867.98
2019-03-11T17:35:25.584Z,98876.16
2019-03-11T17:37:54.840Z,98873.00
2019-03-11T17:40:24.781Z,98877.12
2019-03-11T17:42:54.405Z,98885.12
2019-03-11T17:45:23.835Z,98886.88
2019-03-11T17:47:53.294Z,98894.20
2019-03-11T17:50:23.482Z,98901.41
2019-03-11T17:52:52.893Z,98895.21
2019-03-11T17:55:22.204Z,98900.56
2019-03-11T17:57:51.535Z,98898.65
2019-03-11T18:00:29.108Z,98906.59
2019-03-11T18:02:58.645Z,98903.50
2019-03-11T18:05:27.919Z,98905.67
2019-03-11T18:07:57.230Z,98905.48
2019-03-11T18:10:26.573Z,98907.83
2019-03-11T18:12:55.991Z,98909.78
2019-03-11T18:15:25.460Z,98910.59
2019-03-11T18:17:54.792Z,98918.30
2019-03-11T18:20:23.967Z,98917.98
2019-03-11T18:22:53.403Z,98927.70
2019-03-11T18:25:22.645Z,98930.80
2019-03-11T18:27:51.985Z,98933.44
2019-03-11T18:30:26.063Z,98937.77
2019-03-11T18:32:55.401Z,98935.37
2019-03-11T18:35:24.793Z,98929.97
2019-03-11T18:38:03.531Z,98933.17
2019-03-11T18:40:25.375Z,98938.67
2019-03-11T18:42:54.650Z,98934.73
2019-03-11T18:45:23.947Z,98927.59
2019-03-11T18:47:53.492Z,98939.34
2019-03-11T18:50:24.124Z,98944.16
2019-03-11T18:52:53.482Z,98943.61
2019-03-11T18:55:22.764Z,98942.34
2019-03-11T18:57:52.186Z,98942.73
2019-03-11T19:00:24.757Z,98942.34
2019-03-11T19:02:54.121Z,98942.98
2019-03-11T19:05:24.565Z,98947.61
2019-03-11T19:07:55.330Z,98949.16
2019-03-11T19:10:25.187Z,98950.83
2019-03-11T19:12:54.436Z,98947.89
2019-03-11T19:15:26.018Z,98949.69
2019-03-11T19:17:55.416Z,98949.77
2019-03-11T19:20:25.897Z,98953.42
2019-03-11T19:22:55.162Z,98956.03
2019-03-11T19:25:24.556Z,98960.62
2019-03-11T19:27:54.025Z,98965.55
2019-03-11T19:30:28.270Z,98970.13
2019-03-11T19:32:57.670Z,98973.38
2019-03-11T19:35:27.302Z,98975.72
2019-03-11T19:37:56.677Z,98977.22
2019-03-11T19:40:27.027Z,98979.39
2019-03-11T19:42:56.451Z,98982.96
2019-03-11T19:45:25.766Z,98975.31
2019-03-11T19:47:55.194Z,98994.02
2019-03-11T19:50:24.570Z,98984.52
2019-03-11T19:52:58.882Z,98988.08
2019-03-11T19:55:24.923Z,98988.67
2019-03-11T19:57:54.351Z,98988.33
2019-03-11T20:00:27.049Z,98987.94
2019-03-11T20:02:57.672Z,98987.95
2019-03-11T20:05:32.224Z,98991.33
2019-03-11T20:08:01.693Z,98994.04
2019-03-11T20:10:31.121Z,98992.68
2019-03-11T20:13:00.452Z,98993.33
2019-03-11T20:15:29.987Z,98993.70
2019-03-11T20:17:59.344Z,98992.86
2019-03-11T20:20:28.735Z,99001.02
2019-03-11T20:22:58.156Z,99003.42
2019-03-11T20:25:37.601Z,99006.81
2019-03-11T20:28:07.031Z,99006.48
2019-03-11T20:30:36.479Z,99008.59
2019-03-11T20:33:05.981Z,99013.66
2019-03-11T20:35:35.316Z,99011.78
2019-03-11T20:38:05.061Z,99013.00
2019-03-11T20:40:34.457Z,99023.17
2019-03-11T20:43:03.768Z,99032.36
2019-03-11T20:45:33.547Z,99031.84
2019-03-11T20:48:02.995Z,99032.89
2019-03-11T20:50:41.414Z,99043.45
2019-03-11T20:53:05.590Z,99042.58
2019-03-11T20:55:34.573Z,99044.09
2019-03-11T20:58:03.870Z,99052.61
2019-03-11T21:00:33.450Z,99045.14
2019-03-11T21:03:03.000Z,99044.62
2019-03-11T21:05:37.931Z,99048.19
2019-03-11T21:08:07.336Z,99044.09
2019-03-11T21:10:36.729Z,99042.20
2019-03-11T21:13:06.078Z,99038.67
2019-03-11T21:15:35.446Z,99042.70
2019-03-11T21:18:05.909Z,99041.91
2019-03-11T21:20:35.218Z,99038.79
2019-03-11T21:23:04.573Z,99046.42
2019-03-11T21:25:34.118Z,99045.40
2019-03-11T21:28:03.470Z,99044.88
2019-03-11T21:30:32.922Z,99052.49
2019-03-11T21:33:02.440Z,99049.62
2019-03-11T21:35:31.976Z,99054.20
2019-03-11T21:38:01.491Z,99049.45
2019-03-11T21:40:30.876Z,99052.19
2019-03-11T21:43:00.314Z,99059.66
2019-03-11T21:45:34.369Z,99060.76
2019-03-11T21:48:00.671Z,99062.45
2019-03-11T21:50:30.457Z,99061.62
2019-03-11T21:52:59.854Z,99062.98
2019-03-11T21:55:47.382Z,99060.26
2019-03-11T21:58:16.981Z,99062.78
2019-03-11T22:00:46.362Z,99071.29
2019-03-11T22:03:15.561Z,99065.69
2019-03-11T22:05:44.744Z,99070.95
2019-03-11T22:08:13.974Z,99074.87
2019-03-11T22:10:43.153Z,99076.56
2019-03-11T22:13:12.399Z,99079.11
2019-03-11T22:15:41.673Z,99082.67
2019-03-11T22:18:10.924Z,99086.23
2019-03-11T22:20:40.117Z,99087.44
2019-03-11T22:23:09.357Z,99087.77
2019-03-11T22:25:38.592Z,99088.27
2019-03-11T22:28:08.987Z,99091.00
2019-03-11T22:30:38.181Z,99091.33
2019-03-11T22:33:07.360Z,99095.25
2019-03-11T22:35:36.662Z,99102.22
2019-03-11T22:38:05.919Z,99107.16
2019-03-11T22:40:35.241Z,99099.16
2019-03-11T22:43:04.440Z,99105.28
2019-03-11T22:45:33.822Z,99113.09
2019-03-11T22:48:02.994Z,99112.92
2019-03-11T22:50:32.239Z,99112.56
2019-03-11T22:53:01.480Z,99106.77
2019-03-11T22:55:30.729Z,99102.53
2019-03-11T22:57:59.913Z,99107.97
2019-03-11T23:00:42.548Z,99107.64
2019-03-11T23:03:11.114Z,99104.92
2019-03-11T23:05:56.631Z,99109.48
2019-03-11T23:08:11.251Z,99110.36
2019-03-11T23:10:40.503Z,99110.20
2019-03-11T23:13:09.890Z,99114.45
2019-03-11T23:15:39.259Z,99116.66
2019-03-11T23:18:08.439Z,99120.41
2019-03-11T23:20:37.703Z,99119.90
2019-03-11T23:23:06.982Z,99120.39
2019-03-11T23:25:36.360Z,99111.39
2019-03-11T23:28:05.621Z,99110.04
2019-03-11T23:30:34.882Z,99118.52
2019-03-11T23:33:04.101Z,99117.13
2019-03-11T23:35:33.270Z,99118.50
2019-03-11T23:38:02.516Z,99124.28
2019-03-11T23:40:31.767Z,99117.52
2019-03-11T23:43:01.011Z,99117.84
2019-03-11T23:45:30.289Z,99121.61
2019-03-11T23:47:59.467Z,99127.53
2019-03-11T23:50:28.758Z,99118.63
2019-03-11T23:52:58.006Z,99122.52
2019-03-11T23:55:27.330Z,99120.88
2019-03-11T23:57:56.872Z,99128.71
